sensor_id;sensor_type;location;lat;lon;timestamp;P1;durP1;ratioP1;P2;durP2;ratioP2
15258;SDS011;34462;51.368;12.364;2023-06-14T00:00:15;2.97;;;2.77;;
15258;SDS011;34462;51.368;12.364;2023-06-14T00:02:44;4.10;;;2.80;;
15258;SDS011;34462;51.368;12.364;2023-06-14T00:05:12;3.10;;;2.80;;
15258;SDS011;34462;51.368;12.364;2023-06-14T00:07:41;3.30;;;3.00;;
15258;SDS011;34462;51.368;12.364;2023-06-14T00:10:10;4.93;;;3.10;;
15258;SDS011;34462;51.368;12.364;2023-06-14T00:12:39;4.40;;;3.00;;
15258;SDS011;34462;51.368;12.364;2023-06-14T00:15:09;4.80;;;3.00;;
15258;SDS011;34462;51.368;12.364;2023-06-14T00:17:38;3.27;;;2.80;;
15258;SDS011;34462;51.368;12.364;2023-06-14T00:20:07;3.23;;;2.97;;
15258;SDS011;34462;51.368;12.364;2023-06-14T00:22:36;3.37;;;3.00;;
15258;SDS011;34462;51.368;12.364;2023-06-14T00:25:05;2.90;;;2.70;;
15258;SDS011;34462;51.368;12.364;2023-06-14T00:27:53;3.30;;;2.90;;
15258;SDS011;34462;51.368;12.364;2023-06-14T00:30:24;3.80;;;2.40;;
15258;SDS011;34462;51.368;12.364;2023-06-14T00:32:57;4.27;;;2.80;;
15258;SDS011;34462;51.368;12.364;2023-06-14T00:35:26;3.10;;;2.63;;
15258;SDS011;34462;51.368;12.364;2023-06-14T00:37:54;3.40;;;3.10;;
15258;SDS011;34462;51.368;12.364;2023-06-14T00:40:23;4.90;;;3.33;;
15258;SDS011;34462;51.368;12.364;2023-06-14T00:42:51;3.40;;;3.10;;
15258;SDS011;34462;51.368;12.364;2023-06-14T00:45:20;4.00;;;3.00;;
15258;SDS011;34462;51.368;12.364;2023-06-14T00:47:50;3.40;;;3.10;;
15258;SDS011;34462;51.368;12.364;2023-06-14T00:50:21;4.93;;;3.10;;
15258;SDS011;34462;51.368;12.364;2023-06-14T00:52:50;2.90;;;2.70;;
15258;SDS011;34462;51.368;12.364;2023-06-14T00:55:19;4.33;;;3.20;;
15258;SDS011;34462;51.368;12.364;2023-06-14T00:57:48;3.40;;;3.10;;
15258;SDS011;34462;51.368;12.364;2023-06-14T01:00:17;3.30;;;3.00;;
15258;SDS011;34462;51.368;12.364;2023-06-14T01:02:46;4.07;;;3.20;;
15258;SDS011;34462;51.368;12.364;2023-06-14T01:05:17;5.53;;;3.17;;
15258;SDS011;34462;51.368;12.364;2023-06-14T01:07:52;3.43;;;3.13;;
15258;SDS011;34462;51.368;12.364;2023-06-14T01:10:35;3.40;;;3.10;;
15258;SDS011;34462;51.368;12.364;2023-06-14T01:13:10;4.17;;;3.33;;
15258;SDS011;34462;51.368;12.364;2023-06-14T01:15:43;3.90;;;3.10;;
15258;SDS011;34462;51.368;12.364;2023-06-14T01:18:13;4.50;;;3.30;;
15258;SDS011;34462;51.368;12.364;2023-06-14T01:20:46;4.23;;;3.30;;
15258;SDS011;34462;51.368;12.364;2023-06-14T01:23:18;5.37;;;3.23;;
15258;SDS011;34462;51.368;12.364;2023-06-14T01:25:48;5.23;;;3.27;;
15258;SDS011;34462;51.368;12.364;2023-06-14T01:28:19;3.70;;;2.93;;
15258;SDS011;34462;51.368;12.364;2023-06-14T01:30:49;3.60;;;3.30;;
15258;SDS011;34462;51.368;12.364;2023-06-14T01:33:22;3.70;;;3.37;;
15258;SDS011;34462;51.368;12.364;2023-06-14T01:35:53;4.00;;;3.60;;
15258;SDS011;34462;51.368;12.364;2023-06-14T01:38:25;3.60;;;3.30;;
15258;SDS011;34462;51.368;12.364;2023-06-14T01:40:55;4.70;;;3.67;;
15258;SDS011;34462;51.368;12.364;2023-06-14T01:43:25;4.73;;;3.50;;
15258;SDS011;34462;51.368;12.364;2023-06-14T01:45:57;3.73;;;3.43;;
15258;SDS011;34462;51.368;12.364;2023-06-14T01:48:27;6.30;;;3.40;;
15258;SDS011;34462;51.368;12.364;2023-06-14T01:50:56;3.90;;;3.50;;
15258;SDS011;34462;51.368;12.364;2023-06-14T01:53:26;4.97;;;3.20;;
15258;SDS011;34462;51.368;12.364;2023-06-14T01:55:54;4.83;;;3.37;;
15258;SDS011;34462;51.368;12.364;2023-06-14T01:58:23;3.67;;;3.10;;
15258;SDS011;34462;51.368;12.364;2023-06-14T02:00:52;3.77;;;3.10;;
15258;SDS011;34462;51.368;12.364;2023-06-14T02:03:23;5.07;;;3.00;;
15258;SDS011;34462;51.368;12.364;2023-06-14T02:05:51;3.30;;;3.00;;
15258;SDS011;34462;51.368;12.364;2023-06-14T02:08:20;3.20;;;2.67;;
15258;SDS011;34462;51.368;12.364;2023-06-14T02:10:51;4.43;;;2.93;;
15258;SDS011;34462;51.368;12.364;2023-06-14T02:13:20;4.07;;;3.10;;
15258;SDS011;34462;51.368;12.364;2023-06-14T02:15:48;2.77;;;2.53;;
15258;SDS011;34462;51.368;12.364;2023-06-14T02:18:21;3.43;;;3.13;;
15258;SDS011;34462;51.368;12.364;2023-06-14T02:20:50;4.30;;;2.80;;
15258;SDS011;34462;51.368;12.364;2023-06-14T02:23:18;6.40;;;3.00;;
15258;SDS011;34462;51.368;12.364;2023-06-14T02:25:47;4.43;;;3.13;;
15258;SDS011;34462;51.368;12.364;2023-06-14T02:28:17;4.37;;;3.43;;
15258;SDS011;34462;51.368;12.364;2023-06-14T02:30:45;3.30;;;3.00;;
15258;SDS011;34462;51.368;12.364;2023-06-14T02:33:14;3.57;;;3.23;;
15258;SDS011;34462;51.368;12.364;2023-06-14T02:35:43;3.60;;;3.13;;
15258;SDS011;34462;51.368;12.364;2023-06-14T02:38:12;3.93;;;3.30;;
15258;SDS011;34462;51.368;12.364;2023-06-14T02:40:41;3.20;;;2.87;;
15258;SDS011;34462;51.368;12.364;2023-06-14T02:43:09;4.97;;;2.87;;
15258;SDS011;34462;51.368;12.364;2023-06-14T02:45:39;4.87;;;3.10;;
15258;SDS011;34462;51.368;12.364;2023-06-14T02:48:08;5.17;;;2.83;;
15258;SDS011;34462;51.368;12.364;2023-06-14T02:50:37;3.13;;;2.83;;
15258;SDS011;34462;51.368;12.364;2023-06-14T02:53:06;4.67;;;3.07;;
15258;SDS011;34462;51.368;12.364;2023-06-14T02:55:34;4.33;;;3.40;;
15258;SDS011;34462;51.368;12.364;2023-06-14T02:58:06;4.10;;;2.93;;
15258;SDS011;34462;51.368;12.364;2023-06-14T03:00:34;3.60;;;3.30;;
15258;SDS011;34462;51.368;12.364;2023-06-14T03:03:06;3.60;;;3.30;;
15258;SDS011;34462;51.368;12.364;2023-06-14T03:05:40;3.30;;;3.00;;
15258;SDS011;34462;51.368;12.364;2023-06-14T03:08:12;4.57;;;2.93;;
15258;SDS011;34462;51.368;12.364;2023-06-14T03:10:43;3.10;;;2.77;;
15258;SDS011;34462;51.368;12.364;2023-06-14T03:13:11;4.33;;;3.20;;
15258;SDS011;34462;51.368;12.364;2023-06-14T03:15:40;3.17;;;2.87;;
15258;SDS011;34462;51.368;12.364;2023-06-14T03:18:10;4.17;;;3.27;;
15258;SDS011;34462;51.368;12.364;2023-06-14T03:20:39;4.03;;;2.90;;
15258;SDS011;34462;51.368;12.364;2023-06-14T03:23:08;3.87;;;2.90;;
15258;SDS011;34462;51.368;12.364;2023-06-14T03:25:37;3.23;;;2.93;;
15258;SDS011;34462;51.368;12.364;2023-06-14T03:28:08;3.53;;;3.20;;
15258;SDS011;34462;51.368;12.364;2023-06-14T03:30:36;3.30;;;3.00;;
15258;SDS011;34462;51.368;12.364;2023-06-14T03:33:05;3.20;;;2.90;;
15258;SDS011;34462;51.368;12.364;2023-06-14T03:35:36;3.90;;;3.07;;
15258;SDS011;34462;51.368;12.364;2023-06-14T03:38:04;4.10;;;3.00;;
15258;SDS011;34462;51.368;12.364;2023-06-14T03:40:33;3.30;;;3.00;;
15258;SDS011;34462;51.368;12.364;2023-06-14T03:43:01;3.37;;;3.07;;
15258;SDS011;34462;51.368;12.364;2023-06-14T03:45:30;3.73;;;3.20;;
15258;SDS011;34462;51.368;12.364;2023-06-14T03:47:58;5.10;;;3.20;;
15258;SDS011;34462;51.368;12.364;2023-06-14T03:50:28;3.57;;;3.20;;
15258;SDS011;34462;51.368;12.364;2023-06-14T03:52:57;5.50;;;5.03;;
15258;SDS011;34462;51.368;12.364;2023-06-14T03:55:27;4.67;;;4.10;;
15258;SDS011;34462;51.368;12.364;2023-06-14T03:58:00;4.10;;;3.20;;
15258;SDS011;34462;51.368;12.364;2023-06-14T04:00:28;3.50;;;3.20;;
15258;SDS011;34462;51.368;12.364;2023-06-14T04:02:58;4.13;;;3.73;;
15258;SDS011;34462;51.368;12.364;2023-06-14T04:05:27;3.40;;;3.10;;
15258;SDS011;34462;51.368;12.364;2023-06-14T04:07:57;4.23;;;3.20;;
15258;SDS011;34462;51.368;12.364;2023-06-14T04:10:27;3.80;;;3.50;;
15258;SDS011;34462;51.368;12.364;2023-06-14T04:12:55;3.57;;;3.27;;
15258;SDS011;34462;51.368;12.364;2023-06-14T04:15:24;4.67;;;3.20;;
15258;SDS011;34462;51.368;12.364;2023-06-14T04:17:54;3.70;;;3.40;;
15258;SDS011;34462;51.368;12.364;2023-06-14T04:20:24;4.50;;;3.83;;
15258;SDS011;34462;51.368;12.364;2023-06-14T04:22:52;4.67;;;3.63;;
15258;SDS011;34462;51.368;12.364;2023-06-14T04:25:24;3.90;;;3.60;;
15258;SDS011;34462;51.368;12.364;2023-06-14T04:27:55;4.60;;;3.60;;
15258;SDS011;34462;51.368;12.364;2023-06-14T04:30:23;4.43;;;3.40;;
15258;SDS011;34462;51.368;12.364;2023-06-14T04:32:53;3.90;;;3.60;;
15258;SDS011;34462;51.368;12.364;2023-06-14T04:35:22;4.47;;;3.77;;
15258;SDS011;34462;51.368;12.364;2023-06-14T04:37:51;4.10;;;3.70;;
15258;SDS011;34462;51.368;12.364;2023-06-14T04:40:21;4.43;;;4.03;;
15258;SDS011;34462;51.368;12.364;2023-06-14T04:42:51;3.93;;;3.63;;
15258;SDS011;34462;51.368;12.364;2023-06-14T04:45:20;4.37;;;3.80;;
15258;SDS011;34462;51.368;12.364;2023-06-14T04:47:49;4.50;;;3.50;;
15258;SDS011;34462;51.368;12.364;2023-06-14T04:50:24;4.47;;;3.67;;
15258;SDS011;34462;51.368;12.364;2023-06-14T04:52:52;4.35;;;3.83;;
15258;SDS011;34462;51.368;12.364;2023-06-14T04:55:21;4.32;;;3.40;;
15258;SDS011;34462;51.368;12.364;2023-06-14T04:57:52;4.05;;;3.65;;
15258;SDS011;34462;51.368;12.364;2023-06-14T05:00:20;4.45;;;3.15;;
15258;SDS011;34462;51.368;12.364;2023-06-14T05:02:49;3.60;;;3.10;;
15258;SDS011;34462;51.368;12.364;2023-06-14T05:05:19;4.03;;;3.10;;
15258;SDS011;34462;51.368;12.364;2023-06-14T05:07:48;3.40;;;3.10;;
15258;SDS011;34462;51.368;12.364;2023-06-14T05:10:17;3.45;;;3.00;;
15258;SDS011;34462;51.368;12.364;2023-06-14T05:12:45;3.42;;;2.85;;
15258;SDS011;34462;51.368;12.364;2023-06-14T05:15:15;5.03;;;3.60;;
15258;SDS011;34462;51.368;12.364;2023-06-14T05:17:45;3.85;;;3.50;;
15258;SDS011;34462;51.368;12.364;2023-06-14T05:20:19;5.90;;;3.25;;
15258;SDS011;34462;51.368;12.364;2023-06-14T05:22:49;4.75;;;3.53;;
15258;SDS011;34462;51.368;12.364;2023-06-14T05:25:18;4.13;;;3.67;;
15258;SDS011;34462;51.368;12.364;2023-06-14T05:27:47;5.20;;;4.22;;
15258;SDS011;34462;51.368;12.364;2023-06-14T05:30:18;4.15;;;3.75;;
15258;SDS011;34462;51.368;12.364;2023-06-14T05:32:46;4.13;;;3.70;;
15258;SDS011;34462;51.368;12.364;2023-06-14T05:35:15;4.53;;;4.13;;
15258;SDS011;34462;51.368;12.364;2023-06-14T05:37:44;4.75;;;4.35;;
15258;SDS011;34462;51.368;12.364;2023-06-14T05:40:14;4.90;;;4.40;;
15258;SDS011;34462;51.368;12.364;2023-06-14T05:42:43;4.80;;;4.38;;
15258;SDS011;34462;51.368;12.364;2023-06-14T05:45:12;5.25;;;4.28;;
15258;SDS011;34462;51.368;12.364;2023-06-14T05:47:44;4.95;;;4.45;;
15258;SDS011;34462;51.368;12.364;2023-06-14T05:50:12;5.13;;;4.60;;
15258;SDS011;34462;51.368;12.364;2023-06-14T05:52:41;5.35;;;4.82;;
15258;SDS011;34462;51.368;12.364;2023-06-14T05:55:09;5.95;;;4.30;;
15258;SDS011;34462;51.368;12.364;2023-06-14T05:57:40;5.25;;;4.47;;
15258;SDS011;34462;51.368;12.364;2023-06-14T06:00:09;5.63;;;5.07;;
15258;SDS011;34462;51.368;12.364;2023-06-14T06:02:40;5.53;;;5.03;;
15258;SDS011;34462;51.368;12.364;2023-06-14T06:05:11;4.88;;;4.38;;
15258;SDS011;34462;51.368;12.364;2023-06-14T06:07:41;6.43;;;5.43;;
15258;SDS011;34462;51.368;12.364;2023-06-14T06:10:10;5.68;;;5.18;;
15258;SDS011;34462;51.368;12.364;2023-06-14T06:12:40;7.65;;;5.10;;
15258;SDS011;34462;51.368;12.364;2023-06-14T06:15:09;5.25;;;4.85;;
15258;SDS011;34462;51.368;12.364;2023-06-14T06:17:39;6.90;;;5.57;;
15258;SDS011;34462;51.368;12.364;2023-06-14T06:20:23;5.30;;;4.82;;
15258;SDS011;34462;51.368;12.364;2023-06-14T06:22:56;6.05;;;4.82;;
15258;SDS011;34462;51.368;12.364;2023-06-14T06:25:25;6.57;;;5.22;;
15258;SDS011;34462;51.368;12.364;2023-06-14T06:27:54;6.05;;;5.10;;
15258;SDS011;34462;51.368;12.364;2023-06-14T06:30:23;6.63;;;5.20;;
15258;SDS011;34462;51.368;12.364;2023-06-14T06:32:52;6.85;;;5.20;;
15258;SDS011;34462;51.368;12.364;2023-06-14T06:35:23;5.57;;;5.07;;
15258;SDS011;34462;51.368;12.364;2023-06-14T06:37:52;7.00;;;4.78;;
15258;SDS011;34462;51.368;12.364;2023-06-14T06:40:21;5.30;;;4.90;;
15258;SDS011;34462;51.368;12.364;2023-06-14T06:42:50;5.30;;;4.90;;
15258;SDS011;34462;51.368;12.364;2023-06-14T06:45:19;6.00;;;5.40;;
15258;SDS011;34462;51.368;12.364;2023-06-14T06:47:51;6.03;;;5.20;;
15258;SDS011;34462;51.368;12.364;2023-06-14T06:50:19;6.43;;;5.43;;
15258;SDS011;34462;51.368;12.364;2023-06-14T06:52:50;6.05;;;5.45;;
15258;SDS011;34462;51.368;12.364;2023-06-14T06:55:19;5.82;;;5.25;;
15258;SDS011;34462;51.368;12.364;2023-06-14T06:57:48;6.13;;;5.35;;
15258;SDS011;34462;51.368;12.364;2023-06-14T07:00:19;6.00;;;5.50;;
15258;SDS011;34462;51.368;12.364;2023-06-14T07:02:48;5.93;;;5.43;;
15258;SDS011;34462;51.368;12.364;2023-06-14T07:05:17;4.97;;;4.55;;
15258;SDS011;34462;51.368;12.364;2023-06-14T07:07:46;7.97;;;4.53;;
15258;SDS011;34462;51.368;12.364;2023-06-14T07:10:16;5.72;;;4.93;;
15258;SDS011;34462;51.368;12.364;2023-06-14T07:12:44;4.95;;;4.15;;
15258;SDS011;34462;51.368;12.364;2023-06-14T07:15:13;4.85;;;4.40;;
15258;SDS011;34462;51.368;12.364;2023-06-14T07:17:42;5.22;;;4.70;;
15258;SDS011;34462;51.368;12.364;2023-06-14T07:20:12;5.82;;;4.70;;
15258;SDS011;34462;51.368;12.364;2023-06-14T07:22:42;6.35;;;4.72;;
15258;SDS011;34462;51.368;12.364;2023-06-14T07:25:11;5.78;;;4.20;;
15258;SDS011;34462;51.368;12.364;2023-06-14T07:27:44;6.38;;;4.35;;
15258;SDS011;34462;51.368;12.364;2023-06-14T07:30:13;5.07;;;4.65;;
15258;SDS011;34462;51.368;12.364;2023-06-14T07:32:42;4.90;;;4.47;;
15258;SDS011;34462;51.368;12.364;2023-06-14T07:35:10;4.88;;;4.47;;
15258;SDS011;34462;51.368;12.364;2023-06-14T07:37:39;5.10;;;4.60;;
15258;SDS011;34462;51.368;12.364;2023-06-14T07:40:09;4.70;;;4.30;;
15258;SDS011;34462;51.368;12.364;2023-06-14T07:42:39;4.78;;;4.38;;
15258;SDS011;34462;51.368;12.364;2023-06-14T07:45:09;4.78;;;4.38;;
15258;SDS011;34462;51.368;12.364;2023-06-14T07:47:40;5.13;;;3.80;;
15258;SDS011;34462;51.368;12.364;2023-06-14T07:50:09;5.40;;;4.57;;
15258;SDS011;34462;51.368;12.364;2023-06-14T07:52:39;5.65;;;4.28;;
15258;SDS011;34462;51.368;12.364;2023-06-14T07:55:07;4.03;;;3.72;;
15258;SDS011;34462;51.368;12.364;2023-06-14T07:57:36;4.57;;;4.18;;
15258;SDS011;34462;51.368;12.364;2023-06-14T08:00:05;4.60;;;4.15;;
15258;SDS011;34462;51.368;12.364;2023-06-14T08:02:38;4.80;;;4.40;;
15258;SDS011;34462;51.368;12.364;2023-06-14T08:05:07;4.80;;;4.30;;
15258;SDS011;34462;51.368;12.364;2023-06-14T08:07:37;4.40;;;4.00;;
15258;SDS011;34462;51.368;12.364;2023-06-14T08:10:06;5.82;;;4.50;;
15258;SDS011;34462;51.368;12.364;2023-06-14T08:12:35;4.55;;;4.15;;
15258;SDS011;34462;51.368;12.364;2023-06-14T08:15:04;4.28;;;3.97;;
15258;SDS011;34462;51.368;12.364;2023-06-14T08:17:41;4.32;;;3.92;;
15258;SDS011;34462;51.368;12.364;2023-06-14T08:20:11;5.10;;;4.07;;
15258;SDS011;34462;51.368;12.364;2023-06-14T08:22:43;4.32;;;3.92;;
15258;SDS011;34462;51.368;12.364;2023-06-14T08:25:13;4.40;;;4.00;;
15258;SDS011;34462;51.368;12.364;2023-06-14T08:27:42;4.93;;;4.47;;
15258;SDS011;34462;51.368;12.364;2023-06-14T08:30:11;7.60;;;4.32;;
15258;SDS011;34462;51.368;12.364;2023-06-14T08:32:41;4.45;;;4.05;;
15258;SDS011;34462;51.368;12.364;2023-06-14T08:35:10;5.47;;;4.30;;
15258;SDS011;34462;51.368;12.364;2023-06-14T08:37:40;5.32;;;4.85;;
15258;SDS011;34462;51.368;12.364;2023-06-14T08:40:12;5.10;;;4.60;;
15258;SDS011;34462;51.368;12.364;2023-06-14T08:42:48;4.75;;;4.35;;
15258;SDS011;34462;51.368;12.364;2023-06-14T08:45:19;4.40;;;4.10;;
15258;SDS011;34462;51.368;12.364;2023-06-14T08:47:53;5.15;;;4.75;;
15258;SDS011;34462;51.368;12.364;2023-06-14T08:50:26;6.53;;;4.60;;
15258;SDS011;34462;51.368;12.364;2023-06-14T08:52:58;4.90;;;4.50;;
15258;SDS011;34462;51.368;12.364;2023-06-14T08:55:29;5.32;;;4.72;;
15258;SDS011;34462;51.368;12.364;2023-06-14T08:58:02;5.35;;;4.70;;
15258;SDS011;34462;51.368;12.364;2023-06-14T09:00:31;4.97;;;4.57;;
15258;SDS011;34462;51.368;12.364;2023-06-14T09:03:02;4.15;;;3.75;;
15258;SDS011;34462;51.368;12.364;2023-06-14T09:05:37;4.55;;;4.15;;
15258;SDS011;34462;51.368;12.364;2023-06-14T09:08:05;5.22;;;3.70;;
15258;SDS011;34462;51.368;12.364;2023-06-14T09:10:34;4.75;;;4.35;;
15258;SDS011;34462;51.368;12.364;2023-06-14T09:13:04;4.82;;;4.22;;
15258;SDS011;34462;51.368;12.364;2023-06-14T09:15:34;4.43;;;4.13;;
15258;SDS011;34462;51.368;12.364;2023-06-14T09:18:04;4.72;;;4.22;;
15258;SDS011;34462;51.368;12.364;2023-06-14T09:20:33;4.25;;;3.95;;
15258;SDS011;34462;51.368;12.364;2023-06-14T09:23:02;4.85;;;3.60;;
15258;SDS011;34462;51.368;12.364;2023-06-14T09:25:41;4.25;;;3.80;;
15258;SDS011;34462;51.368;12.364;2023-06-14T09:28:11;3.92;;;3.50;;
15258;SDS011;34462;51.368;12.364;2023-06-14T09:30:40;4.68;;;3.40;;
15258;SDS011;34462;51.368;12.364;2023-06-14T09:33:10;4.03;;;2.90;;
15258;SDS011;34462;51.368;12.364;2023-06-14T09:35:44;3.88;;;3.20;;
15258;SDS011;34462;51.368;12.364;2023-06-14T09:38:13;3.08;;;2.88;;
15258;SDS011;34462;51.368;12.364;2023-06-14T09:40:42;3.22;;;3.03;;
15258;SDS011;34462;51.368;12.364;2023-06-14T09:43:10;3.83;;;3.30;;
15258;SDS011;34462;51.368;12.364;2023-06-14T09:45:39;3.50;;;3.20;;
15258;SDS011;34462;51.368;12.364;2023-06-14T09:48:13;5.97;;;3.42;;
15258;SDS011;34462;51.368;12.364;2023-06-14T09:50:44;5.05;;;3.25;;
15258;SDS011;34462;51.368;12.364;2023-06-14T09:53:14;3.85;;;3.50;;
15258;SDS011;34462;51.368;12.364;2023-06-14T09:55:47;4.00;;;3.70;;
15258;SDS011;34462;51.368;12.364;2023-06-14T09:58:19;3.75;;;3.45;;
15258;SDS011;34462;51.368;12.364;2023-06-14T10:00:50;4.20;;;3.80;;
15258;SDS011;34462;51.368;12.364;2023-06-14T10:03:28;3.75;;;3.40;;
15258;SDS011;34462;51.368;12.364;2023-06-14T10:06:16;6.32;;;3.45;;
15258;SDS011;34462;51.368;12.364;2023-06-14T10:08:47;3.97;;;2.92;;
15258;SDS011;34462;51.368;12.364;2023-06-14T10:11:16;3.08;;;2.88;;
15258;SDS011;34462;51.368;12.364;2023-06-14T10:13:46;4.00;;;3.22;;
15258;SDS011;34462;51.368;12.364;2023-06-14T10:16:15;3.90;;;3.08;;
15258;SDS011;34462;51.368;12.364;2023-06-14T10:18:49;3.35;;;3.05;;
15258;SDS011;34462;51.368;12.364;2023-06-14T10:21:28;3.28;;;2.92;;
15258;SDS011;34462;51.368;12.364;2023-06-14T10:24:05;4.20;;;2.92;;
15258;SDS011;34462;51.368;12.364;2023-06-14T10:26:40;3.17;;;2.97;;
15258;SDS011;34462;51.368;12.364;2023-06-14T10:29:18;2.75;;;2.55;;
15258;SDS011;34462;51.368;12.364;2023-06-14T10:31:48;3.38;;;3.08;;
15258;SDS011;34462;51.368;12.364;2023-06-14T10:34:22;3.47;;;3.03;;
15258;SDS011;34462;51.368;12.364;2023-06-14T10:37:04;5.70;;;3.00;;
15258;SDS011;34462;51.368;12.364;2023-06-14T10:39:38;3.28;;;2.97;;
15258;SDS011;34462;51.368;12.364;2023-06-14T10:42:08;2.60;;;2.40;;
15258;SDS011;34462;51.368;12.364;2023-06-14T10:44:43;2.95;;;2.75;;
15258;SDS011;34462;51.368;12.364;2023-06-14T10:47:23;2.90;;;2.70;;
15258;SDS011;34462;51.368;12.364;2023-06-14T10:49:55;3.97;;;3.00;;
15258;SDS011;34462;51.368;12.364;2023-06-14T10:52:26;2.70;;;2.50;;
15258;SDS011;34462;51.368;12.364;2023-06-14T10:54:56;3.20;;;2.90;;
15258;SDS011;34462;51.368;12.364;2023-06-14T10:57:38;3.20;;;2.63;;
15258;SDS011;34462;51.368;12.364;2023-06-14T11:00:12;2.97;;;2.78;;
15258;SDS011;34462;51.368;12.364;2023-06-14T11:05:58;3.38;;;3.00;;
15258;SDS011;34462;51.368;12.364;2023-06-14T11:08:27;3.50;;;2.72;;
15258;SDS011;34462;51.368;12.364;2023-06-14T11:11:16;3.50;;;3.20;;
15258;SDS011;34462;51.368;12.364;2023-06-14T11:13:45;4.13;;;2.90;;
15258;SDS011;34462;51.368;12.364;2023-06-14T11:16:14;4.63;;;3.08;;
15258;SDS011;34462;51.368;12.364;2023-06-14T11:18:45;3.40;;;3.10;;
15258;SDS011;34462;51.368;12.364;2023-06-14T11:21:17;3.50;;;3.20;;
15258;SDS011;34462;51.368;12.364;2023-06-14T11:23:49;3.70;;;2.95;;
15258;SDS011;34462;51.368;12.364;2023-06-14T11:26:27;3.38;;;2.92;;
15258;SDS011;34462;51.368;12.364;2023-06-14T11:28:57;3.30;;;3.00;;
15258;SDS011;34462;51.368;12.364;2023-06-14T11:31:26;2.83;;;2.63;;
15258;SDS011;34462;51.368;12.364;2023-06-14T11:33:56;3.03;;;2.72;;
15258;SDS011;34462;51.368;12.364;2023-06-14T11:36:28;3.10;;;2.63;;
15258;SDS011;34462;51.368;12.364;2023-06-14T11:38:58;2.95;;;2.60;;
15258;SDS011;34462;51.368;12.364;2023-06-14T11:41:32;3.60;;;2.75;;
15258;SDS011;34462;51.368;12.364;2023-06-14T11:44:03;3.00;;;2.22;;
15258;SDS011;34462;51.368;12.364;2023-06-14T11:46:33;2.63;;;2.42;;
15258;SDS011;34462;51.368;12.364;2023-06-14T11:49:02;2.85;;;2.65;;
15258;SDS011;34462;51.368;12.364;2023-06-14T11:51:35;2.80;;;2.60;;
15258;SDS011;34462;51.368;12.364;2023-06-14T11:54:05;3.17;;;2.65;;
15258;SDS011;34462;51.368;12.364;2023-06-14T11:56:36;3.08;;;2.88;;
15258;SDS011;34462;51.368;12.364;2023-06-14T11:59:04;3.08;;;2.88;;
15258;SDS011;34462;51.368;12.364;2023-06-14T12:01:36;3.20;;;3.00;;
15258;SDS011;34462;51.368;12.364;2023-06-14T12:04:06;3.40;;;3.10;;
15258;SDS011;34462;51.368;12.364;2023-06-14T12:06:36;3.55;;;3.00;;
15258;SDS011;34462;51.368;12.364;2023-06-14T12:09:06;3.15;;;2.85;;
15258;SDS011;34462;51.368;12.364;2023-06-14T12:11:40;3.30;;;3.00;;
15258;SDS011;34462;51.368;12.364;2023-06-14T12:14:08;2.85;;;2.65;;
15258;SDS011;34462;51.368;12.364;2023-06-14T12:16:37;3.20;;;3.00;;
15258;SDS011;34462;51.368;12.364;2023-06-14T12:19:08;3.35;;;3.05;;
15258;SDS011;34462;51.368;12.364;2023-06-14T12:21:41;3.22;;;2.92;;
15258;SDS011;34462;51.368;12.364;2023-06-14T12:24:11;7.65;;;3.60;;
15258;SDS011;34462;51.368;12.364;2023-06-14T12:26:41;3.45;;;3.15;;
15258;SDS011;34462;51.368;12.364;2023-06-14T12:29:09;3.88;;;3.47;;
15258;SDS011;34462;51.368;12.364;2023-06-14T12:31:39;3.50;;;3.20;;
15258;SDS011;34462;51.368;12.364;2023-06-14T12:34:09;3.40;;;3.20;;
15258;SDS011;34462;51.368;12.364;2023-06-14T12:36:37;2.97;;;2.78;;
15258;SDS011;34462;51.368;12.364;2023-06-14T12:39:12;3.00;;;2.80;;
15258;SDS011;34462;51.368;12.364;2023-06-14T12:41:41;3.35;;;3.05;;
15258;SDS011;34462;51.368;12.364;2023-06-14T12:44:10;3.33;;;3.13;;
15258;SDS011;34462;51.368;12.364;2023-06-14T12:46:39;4.68;;;3.40;;
15258;SDS011;34462;51.368;12.364;2023-06-14T12:49:09;4.03;;;3.40;;
15258;SDS011;34462;51.368;12.364;2023-06-14T12:51:38;3.42;;;3.13;;
15258;SDS011;34462;51.368;12.364;2023-06-14T12:54:07;4.57;;;3.17;;
15258;SDS011;34462;51.368;12.364;2023-06-14T12:56:37;3.25;;;3.03;;
15258;SDS011;34462;51.368;12.364;2023-06-14T12:59:07;3.40;;;3.10;;
15258;SDS011;34462;51.368;12.364;2023-06-14T13:01:37;3.50;;;3.10;;
15258;SDS011;34462;51.368;12.364;2023-06-14T13:04:06;4.45;;;3.58;;
15258;SDS011;34462;51.368;12.364;2023-06-14T13:06:35;5.70;;;3.45;;
15258;SDS011;34462;51.368;12.364;2023-06-14T13:09:03;3.75;;;3.40;;
15258;SDS011;34462;51.368;12.364;2023-06-14T13:11:32;3.58;;;3.28;;
15258;SDS011;34462;51.368;12.364;2023-06-14T13:14:02;4.45;;;4.05;;
15258;SDS011;34462;51.368;12.364;2023-06-14T13:16:50;4.10;;;3.47;;
15258;SDS011;34462;51.368;12.364;2023-06-14T13:19:19;4.90;;;3.80;;
15258;SDS011;34462;51.368;12.364;2023-06-14T13:21:47;6.43;;;4.38;;
15258;SDS011;34462;51.368;12.364;2023-06-14T13:24:16;4.55;;;3.80;;
15258;SDS011;34462;51.368;12.364;2023-06-14T13:26:44;4.70;;;4.30;;
15258;SDS011;34462;51.368;12.364;2023-06-14T13:29:14;5.30;;;4.10;;
15258;SDS011;34462;51.368;12.364;2023-06-14T13:31:43;4.28;;;3.88;;
15258;SDS011;34462;51.368;12.364;2023-06-14T13:34:11;4.70;;;3.63;;
15258;SDS011;34462;51.368;12.364;2023-06-14T13:36:40;4.47;;;4.00;;
15258;SDS011;34462;51.368;12.364;2023-06-14T13:39:08;4.15;;;3.70;;
15258;SDS011;34462;51.368;12.364;2023-06-14T13:41:38;4.68;;;3.80;;
15258;SDS011;34462;51.368;12.364;2023-06-14T13:44:06;4.15;;;3.78;;
15258;SDS011;34462;51.368;12.364;2023-06-14T13:46:40;4.20;;;3.90;;
15258;SDS011;34462;51.368;12.364;2023-06-14T13:49:10;4.32;;;3.92;;
15258;SDS011;34462;51.368;12.364;2023-06-14T13:51:39;4.50;;;3.80;;
15258;SDS011;34462;51.368;12.364;2023-06-14T13:54:07;4.43;;;4.03;;
15258;SDS011;34462;51.368;12.364;2023-06-14T13:56:36;6.28;;;3.85;;
15258;SDS011;34462;51.368;12.364;2023-06-14T13:59:05;4.10;;;3.70;;
15258;SDS011;34462;51.368;12.364;2023-06-14T14:01:33;4.32;;;3.83;;
15258;SDS011;34462;51.368;12.364;2023-06-14T14:04:04;4.72;;;3.85;;
15258;SDS011;34462;51.368;12.364;2023-06-14T14:06:32;8.20;;;4.03;;
15258;SDS011;34462;51.368;12.364;2023-06-14T14:09:01;3.83;;;3.50;;
15258;SDS011;34462;51.368;12.364;2023-06-14T14:11:30;4.32;;;3.75;;
15258;SDS011;34462;51.368;12.364;2023-06-14T14:13:59;5.10;;;4.28;;
15258;SDS011;34462;51.368;12.364;2023-06-14T14:16:28;6.05;;;3.50;;
15258;SDS011;34462;51.368;12.364;2023-06-14T14:18:57;3.60;;;3.30;;
15258;SDS011;34462;51.368;12.364;2023-06-14T14:21:27;3.95;;;3.65;;
15258;SDS011;34462;51.368;12.364;2023-06-14T14:23:56;3.85;;;3.47;;
15258;SDS011;34462;51.368;12.364;2023-06-14T14:26:25;4.22;;;3.40;;
15258;SDS011;34462;51.368;12.364;2023-06-14T14:28:54;3.80;;;3.50;;
15258;SDS011;34462;51.368;12.364;2023-06-14T14:31:22;4.57;;;3.75;;
15258;SDS011;34462;51.368;12.364;2023-06-14T14:33:51;3.85;;;3.45;;
15258;SDS011;34462;51.368;12.364;2023-06-14T14:36:20;3.42;;;3.13;;
15258;SDS011;34462;51.368;12.364;2023-06-14T14:38:49;4.18;;;3.63;;
15258;SDS011;34462;51.368;12.364;2023-06-14T14:41:18;4.18;;;3.80;;
15258;SDS011;34462;51.368;12.364;2023-06-14T14:43:47;4.28;;;3.65;;
15258;SDS011;34462;51.368;12.364;2023-06-14T14:46:15;4.65;;;3.53;;
15258;SDS011;34462;51.368;12.364;2023-06-14T14:48:44;3.53;;;3.20;;
15258;SDS011;34462;51.368;12.364;2023-06-14T14:51:13;3.55;;;3.03;;
15258;SDS011;34462;51.368;12.364;2023-06-14T14:53:41;5.40;;;2.88;;